createdAt,value
2022-10-01T00:01:18.888Z,13.94
2022-10-01T00:03:49.393Z,13.93
2022-10-01T00:06:20.682Z,13.86
2022-10-01T00:08:50.783Z,13.83
2022-10-01T00:11:21.171Z,13.74
2022-10-01T00:13:51.576Z,13.72
2022-10-01T00:16:21.798Z,13.69
2022-10-01T00:18:49.906Z,13.74
2022-10-01T00:21:29.956Z,13.70
2022-10-01T00:24:04.800Z,13.70
2022-10-01T00:26:37.365Z,13.69
2022-10-01T00:29:13.971Z,13.66
2022-10-01T00:31:41.407Z,13.59
2022-10-01T00:34:11.360Z,13.58
2022-10-01T00:36:38.609Z,13.48
2022-10-01T00:39:05.935Z,13.51
2022-10-01T00:41:35.141Z,13.46
2022-10-01T00:44:24.591Z,13.41
2022-10-01T00:46:54.116Z,13.29
2022-10-01T00:49:26.782Z,13.30
2022-10-01T00:52:02.383Z,13.30
2022-10-01T00:54:49.471Z,13.26
2022-10-01T00:57:20.791Z,13.24
2022-10-01T00:59:50.194Z,13.22
2022-10-01T01:02:17.825Z,13.20
2022-10-01T01:04:45.285Z,13.14
2022-10-01T01:07:14.027Z,13.13
2022-10-01T01:09:47.601Z,13.06
2022-10-01T01:12:32.072Z,13.08
2022-10-01T01:15:18.106Z,13.04
2022-10-01T01:17:53.235Z,12.95
2022-10-01T01:20:42.830Z,12.91
2022-10-01T01:23:15.760Z,12.93
2022-10-01T01:25:50.291Z,12.88
2022-10-01T01:28:27.562Z,12.88
2022-10-01T01:31:01.149Z,12.85
2022-10-01T01:33:31.248Z,12.84
2022-10-01T01:36:06.993Z,12.81
2022-10-01T01:38:40.549Z,12.81
2022-10-01T01:41:09.306Z,12.72
2022-10-01T01:43:41.950Z,12.69
2022-10-01T01:46:18.278Z,12.69
2022-10-01T01:48:51.236Z,12.72
2022-10-01T01:51:31.811Z,12.70
2022-10-01T01:53:59.426Z,12.68
2022-10-01T01:56:26.678Z,12.71
2022-10-01T01:58:57.511Z,12.71
2022-10-01T02:01:41.036Z,12.65
2022-10-01T02:04:36.030Z,12.53
2022-10-01T02:07:21.341Z,12.58
2022-10-01T02:10:00.960Z,12.50
2022-10-01T02:12:53.782Z,12.42
2022-10-01T02:16:01.504Z,12.38
2022-10-01T02:18:34.008Z,12.38
2022-10-01T02:21:21.563Z,12.32
2022-10-01T02:23:58.240Z,12.28
2022-10-01T02:26:29.118Z,12.25
2022-10-01T02:29:00.979Z,12.25
2022-10-01T02:31:30.786Z,12.25
2022-10-01T02:34:00.713Z,12.24
2022-10-01T02:36:31.787Z,12.19
2022-10-01T02:39:00.897Z,12.20
2022-10-01T02:41:31.439Z,12.22
2022-10-01T02:44:25.319Z,12.18
2022-10-01T02:46:59.437Z,12.17
2022-10-01T02:49:30.887Z,12.07
2022-10-01T02:52:24.159Z,12.07
2022-10-01T02:55:00.437Z,12.05
2022-10-01T02:57:28.950Z,12.01
2022-10-01T03:00:09.113Z,12.04
2022-10-01T03:02:36.476Z,12.06
2022-10-01T03:05:05.245Z,12.09
2022-10-01T03:07:35.750Z,12.08
2022-10-01T03:10:07.975Z,12.10
2022-10-01T03:12:35.902Z,12.06
2022-10-01T03:15:04.581Z,12.02
2022-10-01T03:17:31.820Z,12.01
2022-10-01T03:19:58.757Z,11.99
2022-10-01T03:22:26.293Z,11.92
2022-10-01T03:24:53.954Z,11.94
2022-10-01T03:27:22.067Z,11.92
2022-10-01T03:29:49.669Z,11.90
2022-10-01T03:32:17.840Z,11.92
2022-10-01T03:34:45.028Z,11.92
2022-10-01T03:37:12.444Z,11.88
2022-10-01T03:39:40.333Z,11.85
2022-10-01T03:42:07.439Z,11.82
2022-10-01T03:44:35.431Z,11.81
2022-10-01T03:47:02.472Z,11.78
2022-10-01T03:49:29.896Z,11.77
2022-10-01T03:51:57.979Z,11.76
2022-10-01T03:54:26.512Z,11.79
2022-10-01T03:56:53.514Z,11.76
2022-10-01T03:59:21.395Z,11.78
2022-10-01T04:01:48.840Z,11.77
2022-10-01T04:04:19.061Z,11.79
2022-10-01T04:06:48.864Z,11.80
2022-10-01T04:09:15.869Z,11.79
2022-10-01T04:11:43.250Z,11.84
2022-10-01T04:14:11.203Z,11.89
2022-10-01T04:16:40.501Z,11.95
2022-10-01T04:19:08.247Z,11.96
2022-10-01T04:21:42.497Z,11.87
2022-10-01T04:24:09.716Z,11.84
2022-10-01T04:26:39.134Z,11.83
2022-10-01T04:29:06.191Z,11.88
2022-10-01T04:31:35.881Z,11.88
2022-10-01T04:34:08.501Z,11.96
2022-10-01T04:36:37.452Z,12.03
2022-10-01T04:39:05.279Z,12.07
2022-10-01T04:41:32.431Z,12.13
2022-10-01T04:44:00.427Z,12.20
2022-10-01T04:46:34.801Z,12.23
2022-10-01T04:49:05.952Z,12.26
2022-10-01T04:51:36.378Z,12.30
2022-10-01T04:54:04.048Z,12.31
2022-10-01T04:56:31.160Z,12.35
2022-10-01T04:59:02.005Z,12.37
2022-10-01T05:01:30.134Z,12.42
2022-10-01T05:03:59.267Z,12.44
2022-10-01T05:06:27.221Z,12.49
2022-10-01T05:08:59.359Z,12.54
2022-10-01T05:11:28.669Z,12.59
2022-10-01T05:13:56.756Z,12.69
2022-10-01T05:16:24.529Z,12.78
2022-10-01T05:18:55.103Z,12.89
2022-10-01T05:21:23.275Z,13.01
2022-10-01T05:23:50.283Z,13.08
2022-10-01T05:26:19.661Z,13.13
2022-10-01T05:29:01.886Z,13.29
2022-10-01T05:31:31.994Z,13.35
2022-10-01T05:34:00.208Z,13.50
2022-10-01T05:36:27.271Z,13.57
2022-10-01T05:38:54.756Z,13.66
2022-10-01T05:41:25.601Z,13.74
2022-10-01T05:43:53.120Z,13.88
2022-10-01T05:46:20.373Z,13.97
2022-10-01T05:48:51.632Z,14.10
2022-10-01T05:51:20.887Z,14.18
2022-10-01T05:53:50.591Z,14.28
2022-10-01T05:56:21.702Z,14.42
2022-10-01T05:58:49.615Z,14.51
2022-10-01T06:01:17.387Z,14.62
2022-10-01T06:03:48.990Z,14.70
2022-10-01T06:06:31.591Z,14.82
2022-10-01T06:09:01.945Z,14.94
2022-10-01T06:11:29.060Z,15.04
2022-10-01T06:13:56.125Z,15.16
2022-10-01T06:16:23.490Z,15.27
2022-10-01T06:18:52.169Z,15.39
2022-10-01T06:21:19.074Z,15.57
2022-10-01T06:23:49.463Z,15.75
2022-10-01T06:26:17.174Z,15.91
2022-10-01T06:28:44.369Z,16.16
2022-10-01T06:31:18.929Z,16.35
2022-10-01T06:33:47.813Z,16.54
2022-10-01T06:36:17.485Z,16.71
2022-10-01T06:38:49.454Z,16.92
2022-10-01T06:41:16.742Z,17.06
2022-10-01T06:43:43.693Z,17.14
2022-10-01T06:46:14.327Z,17.29
2022-10-01T06:51:45.432Z,17.46
2022-10-01T06:54:15.105Z,17.55
2022-10-01T06:56:42.007Z,17.63
2022-10-01T06:59:09.031Z,17.64
2022-10-01T07:01:40.483Z,17.68
2022-10-01T07:04:09.783Z,17.69
2022-10-01T07:06:36.802Z,17.80
2022-10-01T07:09:04.330Z,17.89
2022-10-01T07:11:38.809Z,17.99
2022-10-01T07:14:09.938Z,18.06
2022-10-01T07:16:40.222Z,18.15
2022-10-01T07:19:07.707Z,18.26
2022-10-01T07:21:40.816Z,18.33
2022-10-01T07:24:10.919Z,18.48
2022-10-01T07:26:37.978Z,18.62
2022-10-01T07:29:05.028Z,18.78
2022-10-01T07:31:44.450Z,18.94
2022-10-01T07:34:13.689Z,19.12
2022-10-01T07:36:48.327Z,19.34
2022-10-01T07:39:16.952Z,19.53
2022-10-01T07:41:46.369Z,19.74
2022-10-01T07:44:18.927Z,19.98
2022-10-01T07:47:03.482Z,20.20
2022-10-01T07:52:14.815Z,20.64
2022-10-01T07:54:44.795Z,20.92
2022-10-01T07:57:12.941Z,21.11
2022-10-01T07:59:41.500Z,21.33
2022-10-01T08:02:17.421Z,21.54
2022-10-01T08:05:02.994Z,21.75
2022-10-01T08:07:32.035Z,21.95
2022-10-01T08:09:59.048Z,22.08
2022-10-01T08:15:46.208Z,22.53
2022-10-01T08:18:14.156Z,22.77
2022-10-01T08:23:29.554Z,24.08
2022-10-01T08:29:43.490Z,26.47
2022-10-01T08:32:11.580Z,27.33
2022-10-01T08:34:39.043Z,28.61
2022-10-01T08:43:41.056Z,32.42
2022-10-01T08:46:35.381Z,33.86
2022-10-01T08:49:20.996Z,34.63
2022-10-01T08:54:57.381Z,36.18
2022-10-01T08:57:30.802Z,36.51
2022-10-01T09:00:18.741Z,36.27
2022-10-01T09:02:58.479Z,36.37
2022-10-01T09:13:50.248Z,37.95
2022-10-01T09:16:55.128Z,37.98
2022-10-01T09:20:07.883Z,37.98
2022-10-01T09:26:25.857Z,38.07
2022-10-01T09:28:55.722Z,38.69
2022-10-01T09:35:06.974Z,38.97
2022-10-01T09:37:48.784Z,39.11
2022-10-01T09:41:03.214Z,39.34
2022-10-01T09:43:46.003Z,38.82
2022-10-01T09:46:20.318Z,39.22
2022-10-01T09:49:57.719Z,39.15
2022-10-01T09:52:41.648Z,39.50
2022-10-01T09:55:49.291Z,39.35
2022-10-01T10:04:57.770Z,35.12
2022-10-01T10:07:25.799Z,34.28
2022-10-01T10:10:39.723Z,32.91
2022-10-01T10:13:16.851Z,32.18
2022-10-01T10:15:59.417Z,31.56
2022-10-01T10:18:50.136Z,31.05
2022-10-01T10:21:22.922Z,30.72
2022-10-01T10:26:58.909Z,29.61
2022-10-01T10:29:37.617Z,29.29
2022-10-01T10:39:29.384Z,28.74
2022-10-01T10:41:59.954Z,28.56
2022-10-01T10:44:36.292Z,28.49
2022-10-01T10:47:14.920Z,28.47
2022-10-01T10:49:49.184Z,28.37
2022-10-01T10:52:24.623Z,28.26
2022-10-01T10:54:57.610Z,28.29
2022-10-01T10:57:38.691Z,28.09
2022-10-01T11:00:26.742Z,28.08
2022-10-01T11:03:04.410Z,28.06
2022-10-01T11:05:39.699Z,27.91
2022-10-01T11:08:24.112Z,27.84
2022-10-01T11:11:12.643Z,27.88
2022-10-01T11:17:05.112Z,27.67
2022-10-01T11:20:02.872Z,27.60
2022-10-01T11:22:58.188Z,27.70
2022-10-01T11:25:45.777Z,27.71
2022-10-01T11:28:15.923Z,27.79
2022-10-01T11:31:37.898Z,27.90
2022-10-01T11:34:05.379Z,28.03
2022-10-01T11:36:45.278Z,28.03
2022-10-01T11:39:21.038Z,28.04
2022-10-01T11:42:09.444Z,28.12
2022-10-01T11:44:58.583Z,28.09
2022-10-01T11:47:47.994Z,27.96
2022-10-01T11:50:20.745Z,27.99
2022-10-01T11:53:02.854Z,28.06
2022-10-01T11:56:05.527Z,28.15
2022-10-01T11:58:54.781Z,28.12
2022-10-01T12:01:47.283Z,28.13
2022-10-01T12:04:35.257Z,28.08
2022-10-01T12:07:44.172Z,28.00
2022-10-01T12:10:52.605Z,27.96
2022-10-01T12:13:28.059Z,27.99
2022-10-01T12:16:20.268Z,27.96
2022-10-01T12:18:54.732Z,27.90
2022-10-01T12:21:45.202Z,27.88
2022-10-01T12:24:15.945Z,27.85
2022-10-01T12:29:54.928Z,27.96
2022-10-01T12:32:58.754Z,27.93
2022-10-01T12:35:47.624Z,27.88
2022-10-01T12:38:45.423Z,27.84
2022-10-01T12:41:34.631Z,27.89
2022-10-01T12:44:32.524Z,28.00
2022-10-01T12:47:21.904Z,28.19
2022-10-01T12:50:12.104Z,28.32
2022-10-01T12:52:58.940Z,28.35
2022-10-01T12:55:34.399Z,28.31
2022-10-01T12:58:22.092Z,28.19
2022-10-01T13:01:15.738Z,28.07
2022-10-01T13:04:03.365Z,27.97
2022-10-01T13:06:55.728Z,27.87
2022-10-01T13:09:37.956Z,27.76
2022-10-01T13:12:42.916Z,27.71
2022-10-01T13:15:35.379Z,27.63
2022-10-01T13:18:12.607Z,27.53
2022-10-01T13:20:57.457Z,27.44
2022-10-01T13:23:41.607Z,27.36
2022-10-01T13:26:40.081Z,27.28
2022-10-01T13:29:35.319Z,27.17
2022-10-01T13:32:25.856Z,27.10
2022-10-01T13:34:54.095Z,27.07
2022-10-01T13:37:30.197Z,27.09
2022-10-01T13:39:59.652Z,27.03
2022-10-01T13:43:07.217Z,27.10
2022-10-01T13:45:41.681Z,27.15
2022-10-01T13:48:34.865Z,27.15
2022-10-01T13:53:58.357Z,27.05
2022-10-01T13:56:38.049Z,27.00
2022-10-01T13:59:27.847Z,26.93
2022-10-01T14:02:01.418Z,26.82
2022-10-01T14:04:41.167Z,26.79
2022-10-01T14:07:15.558Z,26.71
2022-10-01T14:10:04.060Z,26.62
2022-10-01T14:12:52.891Z,26.55
2022-10-01T14:15:44.805Z,26.49
2022-10-01T14:18:20.289Z,26.40
2022-10-01T14:20:53.804Z,26.35
2022-10-01T14:23:34.145Z,26.25
2022-10-01T14:26:25.084Z,26.17
2022-10-01T14:29:15.039Z,26.08
2022-10-01T14:31:59.461Z,25.97
2022-10-01T14:34:50.072Z,25.84
2022-10-01T14:37:20.023Z,25.73
2022-10-01T14:39:47.792Z,25.67
2022-10-01T14:42:18.875Z,25.58
2022-10-01T14:44:47.541Z,25.50
2022-10-01T14:47:23.804Z,25.40
2022-10-01T14:49:52.003Z,25.25
2022-10-01T14:55:16.271Z,24.97
2022-10-01T14:57:52.171Z,24.82
2022-10-01T15:00:31.409Z,24.71
2022-10-01T15:03:03.678Z,24.59
2022-10-01T15:05:36.236Z,24.46
2022-10-01T15:08:51.335Z,24.36
2022-10-01T15:11:44.712Z,24.21
2022-10-01T15:14:20.508Z,24.17
2022-10-01T15:16:50.734Z,24.03
2022-10-01T15:19:23.229Z,23.85
2022-10-01T15:21:54.308Z,23.74
2022-10-01T15:24:42.028Z,23.61
2022-10-01T15:27:11.767Z,23.46
2022-10-01T15:29:40.394Z,23.35
2022-10-01T15:32:07.871Z,23.23
2022-10-01T15:34:35.388Z,23.11
2022-10-01T15:37:04.327Z,22.99
2022-10-01T15:39:39.872Z,22.93
2022-10-01T15:42:26.603Z,22.80
2022-10-01T15:45:22.963Z,22.72
2022-10-01T15:47:57.242Z,22.59
2022-10-01T15:50:32.921Z,22.48
2022-10-01T15:53:24.841Z,22.38
2022-10-01T15:55:58.144Z,22.26
2022-10-01T15:58:32.447Z,22.21
2022-10-01T16:01:05.762Z,22.17
2022-10-01T16:04:01.421Z,22.16
2022-10-01T16:06:35.570Z,22.08
2022-10-01T16:09:12.331Z,22.05
2022-10-01T16:12:04.329Z,22.11
2022-10-01T16:14:59.589Z,22.13
2022-10-01T16:17:30.462Z,22.10
2022-10-01T16:20:00.715Z,22.08
2022-10-01T16:22:34.942Z,22.16
2022-10-01T16:25:26.804Z,22.13
2022-10-01T16:34:02.972Z,21.92
2022-10-01T16:36:58.223Z,21.86
2022-10-01T16:39:25.515Z,21.91
2022-10-01T16:42:12.136Z,22.01
2022-10-01T16:47:11.428Z,22.04
2022-10-01T16:49:38.476Z,22.01
2022-10-01T16:52:06.641Z,21.98
2022-10-01T16:54:33.783Z,22.01
2022-10-01T16:57:02.611Z,21.96
2022-10-01T16:59:43.767Z,21.90
2022-10-01T17:02:15.185Z,21.87
2022-10-01T17:04:47.516Z,21.73
2022-10-01T17:07:14.663Z,21.73
2022-10-01T17:09:41.757Z,21.74
2022-10-01T17:12:11.360Z,21.71
2022-10-01T17:14:39.344Z,21.56
2022-10-01T17:17:06.295Z,21.46
2022-10-01T17:19:34.883Z,21.29
2022-10-01T17:22:17.103Z,21.18
2022-10-01T17:24:45.061Z,21.06
2022-10-01T17:27:14.262Z,21.01
2022-10-01T17:29:41.926Z,20.94
2022-10-01T17:32:09.655Z,20.92
2022-10-01T17:34:36.841Z,20.90
2022-10-01T17:37:03.794Z,20.92
2022-10-01T17:39:32.910Z,20.93
2022-10-01T17:42:01.474Z,20.79
2022-10-01T17:44:28.843Z,20.68
2022-10-01T17:46:56.109Z,20.68
2022-10-01T17:49:29.775Z,20.76
2022-10-01T17:52:09.652Z,20.83
2022-10-01T17:54:40.664Z,20.86
2022-10-01T17:57:10.940Z,20.79
2022-10-01T17:59:39.403Z,20.81
2022-10-01T18:02:23.595Z,20.78
2022-10-01T18:04:54.507Z,20.75
2022-10-01T18:07:22.812Z,20.70
2022-10-01T18:09:55.756Z,20.71
2022-10-01T18:12:25.502Z,20.72
2022-10-01T18:14:53.037Z,20.74
2022-10-01T18:17:22.500Z,20.81
2022-10-01T18:19:54.042Z,20.87
2022-10-01T18:22:30.922Z,20.98
2022-10-01T18:25:03.789Z,21.01
2022-10-01T18:27:52.156Z,21.06
2022-10-01T18:30:20.317Z,21.06
2022-10-01T18:32:57.144Z,21.11
2022-10-01T18:35:31.962Z,21.22
2022-10-01T18:38:07.555Z,21.28
2022-10-01T18:40:42.398Z,21.34
2022-10-01T18:43:40.982Z,21.37
2022-10-01T18:46:39.070Z,21.45
2022-10-01T18:49:34.376Z,21.51
2022-10-01T18:52:28.298Z,21.55
2022-10-01T18:55:25.608Z,21.56
2022-10-01T18:58:19.457Z,21.60
2022-10-01T19:01:05.764Z,21.59
2022-10-01T19:03:45.495Z,21.62
2022-10-01T19:06:21.736Z,21.63
2022-10-01T19:09:17.680Z,21.64
2022-10-01T19:11:59.963Z,21.60
2022-10-01T19:14:31.997Z,21.55
2022-10-01T19:17:14.271Z,21.57
2022-10-01T19:20:27.734Z,21.51
2022-10-01T19:23:19.720Z,21.53
2022-10-01T19:25:54.228Z,21.56
2022-10-01T19:28:43.154Z,21.51
2022-10-01T19:31:33.846Z,21.44
2022-10-01T19:34:18.238Z,21.37
2022-10-01T19:37:13.662Z,21.29
2022-10-01T19:39:49.918Z,21.25
2022-10-01T19:42:29.448Z,21.18
2022-10-01T19:45:13.196Z,21.08
2022-10-01T19:48:13.427Z,21.04
2022-10-01T19:50:44.666Z,20.97
2022-10-01T19:53:23.132Z,20.93
2022-10-01T19:55:52.983Z,20.84
2022-10-01T19:58:23.941Z,20.74
2022-10-01T20:01:00.651Z,20.66
2022-10-01T20:03:33.909Z,20.73
2022-10-01T20:06:15.048Z,20.67
2022-10-01T20:08:52.724Z,20.66
2022-10-01T20:11:47.045Z,20.62
2022-10-01T20:15:00.558Z,20.60
2022-10-01T20:18:03.089Z,20.55
2022-10-01T20:21:15.586Z,20.47
2022-10-01T20:24:02.713Z,20.41
2022-10-01T20:26:43.043Z,20.35
2022-10-01T20:29:29.298Z,20.30
2022-10-01T20:32:04.712Z,20.20
2022-10-01T20:34:45.582Z,20.08
2022-10-01T20:37:18.684Z,20.04
2022-10-01T20:40:09.156Z,20.00
2022-10-01T20:42:49.647Z,20.02
2022-10-01T20:45:26.312Z,20.08
2022-10-01T20:47:58.890Z,20.03
2022-10-01T20:50:32.397Z,20.05
2022-10-01T20:53:04.180Z,19.93
2022-10-01T20:55:49.192Z,19.98
2022-10-01T20:58:34.206Z,20.03
2022-10-01T21:01:13.017Z,20.06
2022-10-01T21:03:58.252Z,20.03
2022-10-01T21:06:47.675Z,20.00
2022-10-01T21:09:54.470Z,20.08
2022-10-01T21:12:27.149Z,20.03
2022-10-01T21:14:58.217Z,20.08
2022-10-01T21:17:35.283Z,20.12
2022-10-01T21:20:05.789Z,20.14
2022-10-01T21:22:40.585Z,20.16
2022-10-01T21:25:45.433Z,20.20
2022-10-01T21:28:24.709Z,20.20
2022-10-01T21:30:53.148Z,20.20
2022-10-01T21:33:44.394Z,20.16
2022-10-01T21:36:23.277Z,20.17
2022-10-01T21:39:21.376Z,20.13
2022-10-01T21:41:58.924Z,20.08
2022-10-01T21:44:41.331Z,20.06
2022-10-01T21:47:39.999Z,20.01
2022-10-01T21:50:22.417Z,19.99
2022-10-01T21:53:11.583Z,19.89
2022-10-01T21:55:59.055Z,19.76
2022-10-01T21:59:06.267Z,19.66
2022-10-01T22:02:04.978Z,19.53
2022-10-01T22:04:42.604Z,19.40
2022-10-01T22:07:16.961Z,19.29
2022-10-01T22:09:50.380Z,19.20
2022-10-01T22:12:17.681Z,19.12
2022-10-01T22:14:46.110Z,19.06
2022-10-01T22:17:22.279Z,18.98
2022-10-01T22:19:53.988Z,18.86
2022-10-01T22:22:25.898Z,18.87
2022-10-01T22:24:54.905Z,18.79
2022-10-01T22:27:35.884Z,18.75
2022-10-01T22:30:33.690Z,18.69
2022-10-01T22:33:20.411Z,18.61
2022-10-01T22:35:53.352Z,18.55
2022-10-01T22:38:30.879Z,18.43
2022-10-01T22:41:08.400Z,18.31
2022-10-01T22:43:36.526Z,18.25
2022-10-01T22:46:22.172Z,18.23
2022-10-01T22:49:04.782Z,18.22
2022-10-01T22:51:46.739Z,18.26
2022-10-01T22:54:21.867Z,18.34
2022-10-01T22:57:21.483Z,18.42
2022-10-01T22:59:58.628Z,18.53
2022-10-01T23:02:34.850Z,18.58
2022-10-01T23:05:30.268Z,18.62
2022-10-01T23:08:35.974Z,18.67
2022-10-01T23:11:15.461Z,18.73
2022-10-01T23:13:55.411Z,18.76
2022-10-01T23:16:35.239Z,18.79
2022-10-01T23:19:25.553Z,18.85
2022-10-01T23:22:05.366Z,18.87
2022-10-01T23:24:46.293Z,18.93
2022-10-01T23:27:35.932Z,18.96
2022-10-01T23:30:09.869Z,18.99
2022-10-01T23:33:02.282Z,19.00
2022-10-01T23:35:48.173Z,19.03
2022-10-01T23:38:33.421Z,19.03
2022-10-01T23:41:12.511Z,19.01
2022-10-01T23:43:46.911Z,19.00
2022-10-01T23:46:35.488Z,18.95
2022-10-01T23:49:14.658Z,18.92
2022-10-01T23:52:13.436Z,18.89
2022-10-01T23:55:23.244Z,18.82
2022-10-01T23:58:00.929Z,18.82
